createdAt,value
2023-04-30T00:02:17.417Z,100086.16
2023-04-30T00:04:47.377Z,100085.66
2023-04-30T00:07:15.805Z,100081.13
2023-04-30T00:09:44.132Z,100081.28
2023-04-30T00:12:12.405Z,100077.00
2023-04-30T00:14:40.836Z,100083.66
2023-04-30T00:17:09.121Z,100084.44
2023-04-30T00:19:37.474Z,100087.47
2023-04-30T00:22:07.420Z,100085.09
2023-04-30T00:24:35.758Z,100081.75
2023-04-30T00:27:04.031Z,100078.91
2023-04-30T00:29:32.366Z,100080.31
2023-04-30T00:32:00.646Z,100082.16
2023-04-30T00:34:28.989Z,100083.88
2023-04-30T00:36:57.234Z,100080.22
2023-04-30T00:39:26.989Z,100083.38
2023-04-30T00:41:55.333Z,100073.47
2023-04-30T00:44:23.605Z,100074.94
2023-04-30T00:46:51.849Z,100073.03
2023-04-30T00:49:20.324Z,100068.81
2023-04-30T00:51:49.146Z,100075.91
2023-04-30T00:54:17.983Z,100073.41
2023-04-30T00:56:47.972Z,100068.38
2023-04-30T00:59:16.737Z,100070.88
2023-04-30T01:01:45.161Z,100073.09
2023-04-30T01:04:13.968Z,100070.22
2023-04-30T01:06:43.431Z,100073.19
2023-04-30T01:09:12.006Z,100066.41
2023-04-30T01:11:51.302Z,100073.19
2023-04-30T01:14:27.302Z,100067.63
2023-04-30T01:17:06.114Z,100071.69
2023-04-30T01:19:43.334Z,100069.53
2023-04-30T01:22:16.141Z,100068.41
2023-04-30T01:25:07.996Z,100065.94
2023-04-30T01:28:03.886Z,100067.84
2023-04-30T01:30:33.206Z,100063.13
2023-04-30T01:33:02.170Z,100067.22
2023-04-30T01:35:46.265Z,100062.03
2023-04-30T01:38:24.981Z,100064.84
2023-04-30T01:40:59.600Z,100065.00
2023-04-30T01:43:40.971Z,100063.13
2023-04-30T01:46:19.420Z,100055.41
2023-04-30T01:48:54.916Z,100058.56
2023-04-30T01:51:32.356Z,100052.25
2023-04-30T01:54:06.824Z,100054.44
2023-04-30T01:56:45.710Z,100053.84
2023-04-30T01:59:16.699Z,100064.03
2023-04-30T02:01:44.995Z,100060.38
2023-04-30T02:04:13.388Z,100067.94
2023-04-30T02:06:41.816Z,100055.97
2023-04-30T02:09:10.800Z,100055.19
2023-04-30T02:11:39.166Z,100052.97
2023-04-30T02:14:07.509Z,100048.91
2023-04-30T02:16:37.581Z,100055.53
2023-04-30T02:19:05.916Z,100043.38
2023-04-30T02:21:34.233Z,100045.75
2023-04-30T02:24:02.696Z,100051.88
2023-04-30T02:26:31.078Z,100049.97
2023-04-30T02:29:00.382Z,100051.38
2023-04-30T02:31:28.726Z,100051.97
2023-04-30T02:33:58.688Z,100047.41
2023-04-30T02:36:27.283Z,100048.03
2023-04-30T02:38:55.721Z,100052.59
2023-04-30T02:41:24.026Z,100051.00
2023-04-30T02:43:52.929Z,100044.69
2023-04-30T02:46:21.228Z,100049.88
2023-04-30T02:48:51.012Z,100045.91
2023-04-30T02:51:20.689Z,100046.41
2023-04-30T02:53:49.710Z,100047.31
2023-04-30T02:56:17.939Z,100053.16
2023-04-30T02:58:46.639Z,100048.56
2023-04-30T03:01:15.588Z,100054.22
2023-04-30T03:03:44.038Z,100054.22
2023-04-30T03:06:12.304Z,100050.00
2023-04-30T03:08:41.992Z,100058.81
2023-04-30T03:11:10.461Z,100056.59
2023-04-30T03:13:38.670Z,100047.78
2023-04-30T03:16:07.081Z,100058.19
2023-04-30T03:18:35.376Z,100050.47
2023-04-30T03:21:03.684Z,100056.00
2023-04-30T03:23:32.269Z,100057.63
2023-04-30T03:26:01.957Z,100052.75
2023-04-30T03:28:30.438Z,100050.81
2023-04-30T03:30:59.322Z,100054.97
2023-04-30T03:33:27.654Z,100056.97
2023-04-30T03:35:56.110Z,100056.69
2023-04-30T03:38:24.496Z,100058.19
2023-04-30T03:40:52.941Z,100058.63
2023-04-30T03:43:23.463Z,100054.06
2023-04-30T03:45:52.322Z,100059.34
2023-04-30T03:48:21.573Z,100061.22
2023-04-30T03:50:50.091Z,100058.53
2023-04-30T03:53:18.435Z,100060.06
2023-04-30T03:55:46.820Z,100060.22
2023-04-30T03:58:15.127Z,100063.44
2023-04-30T04:00:45.834Z,100068.69
2023-04-30T04:03:14.305Z,100070.25
2023-04-30T04:05:42.791Z,100072.94
2023-04-30T04:08:12.048Z,100068.91
2023-04-30T04:10:41.212Z,100066.41
2023-04-30T04:13:09.639Z,100069.88
2023-04-30T04:15:37.943Z,100077.34
2023-04-30T04:18:08.741Z,100076.59
2023-04-30T04:20:37.170Z,100077.66
2023-04-30T04:23:05.491Z,100074.47
2023-04-30T04:25:34.357Z,100081.66
2023-04-30T04:28:02.600Z,100083.19
2023-04-30T04:30:30.937Z,100086.22
2023-04-30T04:33:00.531Z,100082.66
2023-04-30T04:35:30.300Z,100086.16
2023-04-30T04:37:59.163Z,100097.03
2023-04-30T04:40:28.297Z,100087.72
2023-04-30T04:42:58.147Z,100084.97
2023-04-30T04:45:26.358Z,100082.88
2023-04-30T04:47:54.676Z,100069.94
2023-04-30T04:50:23.070Z,100073.84
2023-04-30T04:52:52.784Z,100077.19
2023-04-30T04:55:21.123Z,100081.97
2023-04-30T04:57:49.348Z,100088.97
2023-04-30T05:00:18.630Z,100079.38
2023-04-30T05:02:46.973Z,100089.19
2023-04-30T05:05:15.318Z,100089.47
2023-04-30T05:07:44.511Z,100085.38
2023-04-30T05:10:14.234Z,100087.59
2023-04-30T05:12:42.621Z,100094.09
2023-04-30T05:15:11.587Z,100092.50
2023-04-30T05:17:39.891Z,100095.34
2023-04-30T05:20:09.618Z,100095.38
2023-04-30T05:22:37.995Z,100099.28
2023-04-30T05:25:07.290Z,100097.66
2023-04-30T05:27:37.421Z,100099.50
2023-04-30T05:30:06.897Z,100096.13
2023-04-30T05:32:36.022Z,100098.09
2023-04-30T05:35:04.508Z,100104.19
2023-04-30T05:37:32.844Z,100105.47
2023-04-30T05:40:01.110Z,100105.06
2023-04-30T05:42:29.346Z,100098.44
2023-04-30T05:44:59.049Z,100099.97
2023-04-30T05:47:27.269Z,100096.91
2023-04-30T05:49:56.370Z,100096.56
2023-04-30T05:52:24.860Z,100097.63
2023-04-30T05:54:54.063Z,100099.47
2023-04-30T05:57:22.432Z,100104.63
2023-04-30T05:59:50.869Z,100106.56
2023-04-30T06:02:20.543Z,100101.88
2023-04-30T06:04:49.331Z,100103.84
2023-04-30T06:07:17.730Z,100108.25
2023-04-30T06:09:45.929Z,100112.31
2023-04-30T06:12:14.321Z,100118.66
2023-04-30T06:14:45.505Z,100117.00
2023-04-30T06:17:13.956Z,100114.50
2023-04-30T06:19:43.613Z,100117.53
2023-04-30T06:22:11.839Z,100118.69
2023-04-30T06:24:40.128Z,100122.47
2023-04-30T06:27:08.380Z,100113.31
2023-04-30T06:29:36.773Z,100121.44
2023-04-30T06:32:07.038Z,100120.53
2023-04-30T06:34:37.120Z,100121.75
2023-04-30T06:37:07.003Z,100119.97
2023-04-30T06:39:35.411Z,100117.88
2023-04-30T06:42:04.027Z,100114.09
2023-04-30T06:44:33.253Z,100122.03
2023-04-30T06:47:01.513Z,100117.69
2023-04-30T06:49:29.760Z,100127.06
2023-04-30T06:51:58.714Z,100125.72
2023-04-30T06:54:28.426Z,100127.78
2023-04-30T06:56:57.025Z,100117.19
2023-04-30T06:59:25.471Z,100123.00
2023-04-30T07:01:53.869Z,100120.31
2023-04-30T07:04:22.242Z,100132.69
2023-04-30T07:06:51.359Z,100123.81
2023-04-30T07:09:19.835Z,100129.25
2023-04-30T07:11:50.458Z,100128.06
2023-04-30T07:14:18.747Z,100127.31
2023-04-30T07:16:47.014Z,100125.94
2023-04-30T07:19:15.296Z,100126.19
2023-04-30T07:21:43.885Z,100127.66
2023-04-30T07:24:12.179Z,100124.06
2023-04-30T07:26:40.436Z,100132.38
2023-04-30T07:29:10.356Z,100127.75
2023-04-30T07:31:38.750Z,100133.78
2023-04-30T07:34:07.148Z,100131.53
2023-04-30T07:36:35.866Z,100130.41
2023-04-30T07:39:05.570Z,100139.06
2023-04-30T07:41:33.969Z,100138.72
2023-04-30T07:44:02.407Z,100144.06
2023-04-30T07:46:32.162Z,100128.97
2023-04-30T07:49:00.654Z,100121.53
2023-04-30T07:51:29.215Z,100129.78
2023-04-30T07:53:57.524Z,100120.22
2023-04-30T07:56:25.827Z,100119.63
2023-04-30T07:58:54.183Z,100122.38
2023-04-30T08:01:22.589Z,100115.50
2023-04-30T08:03:52.321Z,100114.41
2023-04-30T08:06:20.860Z,100129.50
2023-04-30T08:08:50.502Z,100130.22
2023-04-30T08:11:18.830Z,100127.00
2023-04-30T08:13:47.403Z,100121.56
2023-04-30T08:16:15.889Z,100124.41
2023-04-30T08:18:46.331Z,100119.84
2023-04-30T08:21:16.455Z,100116.78
2023-04-30T08:23:44.869Z,100105.56
2023-04-30T08:26:13.144Z,100117.13
2023-04-30T08:28:41.510Z,100110.56
2023-04-30T08:31:09.786Z,100119.06
2023-04-30T08:33:38.043Z,100097.00
2023-04-30T08:36:06.786Z,100113.91
2023-04-30T08:38:36.717Z,100109.66
2023-04-30T08:41:11.523Z,100109.97
2023-04-30T08:43:40.188Z,100104.25
2023-04-30T08:46:09.174Z,100095.63
2023-04-30T08:48:37.721Z,100103.00
2023-04-30T08:51:06.639Z,100108.78
2023-04-30T08:53:39.149Z,100114.53
2023-04-30T08:56:08.104Z,100097.06
2023-04-30T08:58:36.384Z,100105.69
2023-04-30T09:01:05.562Z,100104.09
2023-04-30T09:03:34.141Z,100103.59
2023-04-30T09:06:02.468Z,100104.44
2023-04-30T09:08:47.033Z,100092.75
2023-04-30T09:11:25.994Z,100094.94
2023-04-30T09:13:57.489Z,100089.81
2023-04-30T09:16:26.782Z,100093.91
2023-04-30T09:18:56.812Z,100088.31
2023-04-30T09:21:35.367Z,100078.72
2023-04-30T09:24:06.676Z,100081.28
2023-04-30T09:26:36.408Z,100082.34
2023-04-30T09:29:08.865Z,100087.13
2023-04-30T09:31:38.174Z,100082.50
2023-04-30T09:34:06.893Z,100078.72
2023-04-30T09:36:35.934Z,100080.00
2023-04-30T09:39:14.815Z,100071.28
2023-04-30T09:41:43.891Z,100065.97
2023-04-30T09:44:29.762Z,100070.75
2023-04-30T09:46:59.431Z,100068.72
2023-04-30T09:49:28.297Z,100065.75
2023-04-30T09:51:57.700Z,100064.41
2023-04-30T09:54:30.382Z,100069.94
2023-04-30T09:57:00.224Z,100074.63
2023-04-30T09:59:35.510Z,100063.91
2023-04-30T10:02:05.808Z,100067.97
2023-04-30T10:04:36.235Z,100060.91
2023-04-30T10:07:07.943Z,100066.44
2023-04-30T10:09:42.766Z,100069.13
2023-04-30T10:12:16.569Z,100062.88
2023-04-30T10:14:52.825Z,100069.50
2023-04-30T10:17:25.336Z,100061.59
2023-04-30T10:19:56.627Z,100080.81
2023-04-30T10:22:25.411Z,100076.53
2023-04-30T10:24:55.933Z,100067.97
2023-04-30T10:27:24.345Z,100064.47
2023-04-30T10:29:53.120Z,100060.75
2023-04-30T10:32:23.013Z,100067.63
2023-04-30T10:35:00.567Z,100074.63
2023-04-30T10:37:47.598Z,100058.19
2023-04-30T10:40:17.567Z,100059.00
2023-04-30T10:42:47.707Z,100061.59
2023-04-30T10:45:17.829Z,100068.25
2023-04-30T10:47:47.072Z,100065.16
2023-04-30T10:50:15.487Z,100060.31
2023-04-30T10:52:45.741Z,100060.25
2023-04-30T10:55:20.302Z,100061.66
2023-04-30T10:57:50.059Z,100063.00
2023-04-30T11:00:25.981Z,100055.44
2023-04-30T11:02:58.702Z,100056.97
2023-04-30T11:05:37.928Z,100056.63
2023-04-30T11:08:07.098Z,100047.75
2023-04-30T11:10:37.232Z,100048.00
2023-04-30T11:13:07.830Z,100055.06
2023-04-30T11:15:41.587Z,100051.09
2023-04-30T11:18:10.828Z,100066.34
2023-04-30T11:20:42.061Z,100055.44
2023-04-30T11:23:11.687Z,100062.63
2023-04-30T11:25:45.735Z,100060.41
2023-04-30T11:28:17.839Z,100064.72
2023-04-30T11:30:53.778Z,100058.19
2023-04-30T11:33:22.963Z,100055.47
2023-04-30T11:35:53.381Z,100064.84
2023-04-30T11:38:24.480Z,100050.72
2023-04-30T11:40:55.102Z,100051.56
2023-04-30T11:43:29.729Z,100055.06
2023-04-30T11:46:07.493Z,100064.38
2023-04-30T11:48:37.097Z,100050.31
2023-04-30T11:51:07.476Z,100045.38
2023-04-30T11:53:35.714Z,100041.97
2023-04-30T11:56:06.498Z,100050.88
2023-04-30T11:58:40.163Z,100050.94
2023-04-30T12:01:09.783Z,100063.91
2023-04-30T12:03:45.458Z,100070.06
2023-04-30T12:06:14.351Z,100061.25
2023-04-30T12:08:44.024Z,100060.16
2023-04-30T12:11:25.553Z,100057.63
2023-04-30T12:13:55.456Z,100065.25
2023-04-30T12:16:25.251Z,100064.28
2023-04-30T12:18:53.587Z,100063.28
2023-04-30T12:21:23.589Z,100067.88
2023-04-30T12:23:52.153Z,100061.22
2023-04-30T12:26:21.101Z,100071.66
2023-04-30T12:28:51.236Z,100065.50
2023-04-30T12:31:19.908Z,100058.59
2023-04-30T12:33:56.517Z,100067.66
2023-04-30T12:36:31.713Z,100072.94
2023-04-30T12:39:10.196Z,100080.13
2023-04-30T12:41:41.630Z,100076.13
2023-04-30T12:44:19.043Z,100066.91
2023-04-30T12:46:48.297Z,100059.75
2023-04-30T12:49:26.912Z,100062.44
2023-04-30T12:52:01.442Z,100061.44
2023-04-30T12:54:30.478Z,100066.94
2023-04-30T12:57:03.543Z,100073.56
2023-04-30T12:59:34.855Z,100069.28
2023-04-30T13:02:10.723Z,100071.28
2023-04-30T13:04:39.193Z,100055.56
2023-04-30T13:07:07.620Z,100064.28
2023-04-30T13:09:36.964Z,100055.25
2023-04-30T13:12:06.565Z,100055.13
2023-04-30T13:14:36.652Z,100048.63
2023-04-30T13:17:07.227Z,100046.31
2023-04-30T13:19:35.538Z,100055.69
2023-04-30T13:22:04.054Z,100049.28
2023-04-30T13:24:32.465Z,100056.06
2023-04-30T13:27:00.843Z,100047.31
2023-04-30T13:29:29.122Z,100045.44
2023-04-30T13:31:59.380Z,100048.41
2023-04-30T13:34:27.688Z,100056.09
2023-04-30T13:36:55.981Z,100053.25
2023-04-30T13:39:24.323Z,100058.25
2023-04-30T13:41:52.690Z,100047.25
2023-04-30T13:44:20.947Z,100054.78
2023-04-30T13:46:50.375Z,100056.84
2023-04-30T13:49:20.145Z,100057.66
2023-04-30T13:51:48.559Z,100055.88
2023-04-30T13:54:16.854Z,100055.66
2023-04-30T13:56:45.173Z,100064.09
2023-04-30T13:59:13.435Z,100070.31
2023-04-30T14:01:42.223Z,100061.50
2023-04-30T14:04:10.564Z,100059.41
2023-04-30T14:06:40.325Z,100061.91
2023-04-30T14:09:08.959Z,100065.25
2023-04-30T14:11:37.204Z,100065.41
2023-04-30T14:14:05.914Z,100063.91
2023-04-30T14:16:34.414Z,100066.56
2023-04-30T14:19:02.916Z,100067.75
2023-04-30T14:21:31.502Z,100068.28
2023-04-30T14:24:01.306Z,100071.16
2023-04-30T14:26:29.727Z,100058.16
2023-04-30T14:28:58.844Z,100073.09
2023-04-30T14:31:27.338Z,100068.91
2023-04-30T14:33:55.906Z,100068.69
2023-04-30T14:36:24.229Z,100079.69
2023-04-30T14:38:52.750Z,100080.38
2023-04-30T14:41:22.458Z,100077.16
2023-04-30T14:43:52.762Z,100090.00
2023-04-30T14:46:21.139Z,100092.06
2023-04-30T14:48:49.647Z,100087.78
2023-04-30T14:51:17.911Z,100091.38
2023-04-30T14:53:46.155Z,100093.47
2023-04-30T14:56:14.543Z,100099.84
2023-04-30T14:58:44.428Z,100107.56
2023-04-30T15:01:12.658Z,100106.50
2023-04-30T15:03:41.149Z,100099.88
2023-04-30T15:06:09.702Z,100114.59
2023-04-30T15:08:38.076Z,100118.34
2023-04-30T15:11:07.286Z,100114.00
2023-04-30T15:13:35.466Z,100116.63
2023-04-30T15:16:05.489Z,100112.72
2023-04-30T15:18:34.328Z,100112.72
2023-04-30T15:21:02.788Z,100108.16
2023-04-30T15:23:31.918Z,100102.75
2023-04-30T15:26:00.162Z,100114.25
2023-04-30T15:28:29.088Z,100113.56
2023-04-30T15:30:57.382Z,100117.53
2023-04-30T15:33:28.888Z,100116.75
2023-04-30T15:35:57.388Z,100108.66
2023-04-30T15:38:25.682Z,100110.13
2023-04-30T15:40:53.889Z,100116.06
2023-04-30T15:43:23.313Z,100119.25
2023-04-30T15:45:51.594Z,100115.41
2023-04-30T15:48:19.951Z,100111.94
2023-04-30T15:50:50.513Z,100115.13
2023-04-30T15:53:18.784Z,100116.50
2023-04-30T15:55:47.976Z,100117.16
2023-04-30T15:58:16.531Z,100117.06
2023-04-30T16:00:45.051Z,100130.94
2023-04-30T16:03:13.425Z,100129.72
2023-04-30T16:05:42.378Z,100128.91
2023-04-30T16:08:12.307Z,100131.84
2023-04-30T16:10:40.647Z,100140.13
2023-04-30T16:13:09.992Z,100134.13
2023-04-30T16:15:38.267Z,100142.22
2023-04-30T16:18:07.987Z,100147.03
2023-04-30T16:20:36.821Z,100142.97
2023-04-30T16:23:06.125Z,100146.56
2023-04-30T16:25:35.944Z,100146.22
2023-04-30T16:28:04.316Z,100148.91
2023-04-30T16:30:33.924Z,100148.47
2023-04-30T16:33:02.294Z,100158.50
2023-04-30T16:35:31.693Z,100151.09
2023-04-30T16:37:59.950Z,100154.09
2023-04-30T16:40:28.286Z,100157.31
2023-04-30T16:42:59.088Z,100155.75
2023-04-30T16:45:27.503Z,100162.22
2023-04-30T16:47:56.577Z,100156.72
2023-04-30T16:50:26.877Z,100161.81
2023-04-30T16:52:55.265Z,100162.16
2023-04-30T16:55:23.600Z,100163.63
2023-04-30T16:57:53.931Z,100165.06
2023-04-30T17:00:23.959Z,100167.13
2023-04-30T17:02:53.363Z,100172.34
2023-04-30T17:05:22.542Z,100180.59
2023-04-30T17:07:50.893Z,100175.53
2023-04-30T17:10:19.665Z,100172.53
2023-04-30T17:12:48.046Z,100165.72
2023-04-30T17:15:18.311Z,100174.44
2023-04-30T17:17:48.518Z,100174.75
2023-04-30T17:20:16.859Z,100178.38
2023-04-30T17:22:45.145Z,100170.53
2023-04-30T17:25:13.455Z,100179.53
2023-04-30T17:27:41.755Z,100182.34
2023-04-30T17:30:10.818Z,100181.41
2023-04-30T17:32:39.523Z,100185.56
2023-04-30T17:35:09.508Z,100182.56
2023-04-30T17:37:37.910Z,100196.31
2023-04-30T17:40:07.762Z,100185.75
2023-04-30T17:42:36.083Z,100195.41
2023-04-30T17:45:04.541Z,100194.78
2023-04-30T17:47:33.098Z,100198.88
2023-04-30T17:50:04.667Z,100203.50
2023-04-30T17:52:38.583Z,100206.19
2023-04-30T17:55:08.406Z,100206.31
2023-04-30T17:57:36.862Z,100214.22
2023-04-30T18:00:07.183Z,100224.34
2023-04-30T18:02:35.562Z,100220.56
2023-04-30T18:05:03.905Z,100225.41
2023-04-30T18:07:33.656Z,100219.75
2023-04-30T18:10:01.914Z,100225.59
2023-04-30T18:12:31.013Z,100229.72
2023-04-30T18:15:00.773Z,100236.69
2023-04-30T18:17:29.077Z,100239.22
2023-04-30T18:19:57.688Z,100242.84
2023-04-30T18:22:26.123Z,100237.63
2023-04-30T18:24:56.028Z,100237.94
2023-04-30T18:27:24.326Z,100237.66
2023-04-30T18:29:52.793Z,100246.34
2023-04-30T18:32:21.263Z,100241.56
2023-04-30T18:34:49.748Z,100243.31
2023-04-30T18:37:18.124Z,100250.41
2023-04-30T18:39:46.356Z,100248.22
2023-04-30T18:42:16.178Z,100249.94
2023-04-30T18:44:44.476Z,100252.47
2023-04-30T18:47:12.802Z,100260.53
2023-04-30T18:49:41.509Z,100255.94
2023-04-30T18:52:10.154Z,100262.88
2023-04-30T18:54:38.601Z,100262.25
2023-04-30T18:57:08.013Z,100259.09
2023-04-30T18:59:39.263Z,100257.06
2023-04-30T19:02:07.957Z,100254.84
2023-04-30T19:04:36.593Z,100252.47
2023-04-30T19:07:04.849Z,100255.47
2023-04-30T19:09:37.110Z,100256.56
2023-04-30T19:12:06.525Z,100261.47
2023-04-30T19:14:34.955Z,100263.69
2023-04-30T19:17:05.161Z,100261.47
2023-04-30T19:19:34.219Z,100259.72
2023-04-30T19:22:02.451Z,100258.59
2023-04-30T19:24:30.843Z,100263.81
2023-04-30T19:26:59.123Z,100263.19
2023-04-30T19:29:29.640Z,100258.63
2023-04-30T19:31:59.639Z,100253.25
2023-04-30T19:34:29.564Z,100256.09
2023-04-30T19:36:58.440Z,100252.94
2023-04-30T19:39:31.935Z,100254.81
2023-04-30T19:42:00.349Z,100246.63
2023-04-30T19:44:29.502Z,100250.09
2023-04-30T19:46:58.322Z,100247.56
2023-04-30T19:49:26.886Z,100248.38
2023-04-30T19:51:56.663Z,100252.63
2023-04-30T19:54:24.919Z,100252.63
2023-04-30T19:56:54.972Z,100248.38
2023-04-30T19:59:23.537Z,100255.66
2023-04-30T20:01:53.546Z,100256.88
2023-04-30T20:04:21.859Z,100251.06
2023-04-30T20:06:56.981Z,100259.56
2023-04-30T20:09:26.930Z,100259.69
2023-04-30T20:11:56.448Z,100259.53
2023-04-30T20:14:25.044Z,100260.16
2023-04-30T20:16:54.985Z,100262.88
2023-04-30T20:19:23.509Z,100266.81
2023-04-30T20:21:52.076Z,100265.09
2023-04-30T20:24:21.853Z,100271.69
2023-04-30T20:26:51.497Z,100269.94
2023-04-30T20:29:20.772Z,100269.00
2023-04-30T20:31:49.248Z,100278.66
2023-04-30T20:34:17.703Z,100276.28
2023-04-30T20:36:45.936Z,100275.50
2023-04-30T20:39:14.735Z,100272.03
2023-04-30T20:41:44.068Z,100278.53
2023-04-30T20:44:14.022Z,100282.31
2023-04-30T20:46:43.255Z,100284.06
2023-04-30T20:49:12.400Z,100282.03
2023-04-30T20:51:40.680Z,100294.00
2023-04-30T20:54:09.835Z,100288.34
2023-04-30T20:56:38.626Z,100291.78
2023-04-30T20:59:06.951Z,100285.13
2023-04-30T21:01:37.061Z,100294.16
2023-04-30T21:04:05.618Z,100290.69
2023-04-30T21:06:34.160Z,100288.00
2023-04-30T21:09:02.460Z,100285.97
2023-04-30T21:11:30.949Z,100286.28
2023-04-30T21:13:59.212Z,100292.25
2023-04-30T21:16:28.926Z,100284.47
2023-04-30T21:18:58.839Z,100286.34
2023-04-30T21:21:27.521Z,100284.28
2023-04-30T21:23:55.874Z,100282.81
2023-04-30T21:26:24.342Z,100280.81
2023-04-30T21:28:52.857Z,100287.16
2023-04-30T21:31:21.328Z,100294.13
2023-04-30T21:33:49.574Z,100296.38
2023-04-30T21:36:20.380Z,100293.53
2023-04-30T21:38:48.743Z,100290.84
2023-04-30T21:41:18.177Z,100301.56
2023-04-30T21:43:46.544Z,100304.41
2023-04-30T21:46:14.955Z,100302.88
2023-04-30T21:48:43.374Z,100301.97
2023-04-30T21:51:15.357Z,100300.28
2023-04-30T21:53:45.913Z,100301.13
2023-04-30T21:56:14.900Z,100301.91
2023-04-30T21:58:43.695Z,100302.59
2023-04-30T22:01:12.414Z,100294.28
2023-04-30T22:03:42.670Z,100298.97
2023-04-30T22:06:11.240Z,100294.16
2023-04-30T22:08:39.584Z,100291.38
2023-04-30T22:11:09.351Z,100302.44
2023-04-30T22:13:37.855Z,100294.41
2023-04-30T22:16:06.766Z,100298.50
2023-04-30T22:18:35.337Z,100300.41
2023-04-30T22:21:03.838Z,100297.59
2023-04-30T22:23:32.336Z,100296.50
2023-04-30T22:26:01.356Z,100298.38
2023-04-30T22:28:31.006Z,100301.06
2023-04-30T22:31:00.392Z,100296.28
2023-04-30T22:33:28.710Z,100300.19
2023-04-30T22:35:57.333Z,100294.06
2023-04-30T22:38:25.657Z,100299.22
2023-04-30T22:40:54.123Z,100290.88
2023-04-30T22:43:22.770Z,100291.19
2023-04-30T22:45:52.777Z,100298.22
2023-04-30T22:48:21.061Z,100294.16
2023-04-30T22:50:49.493Z,100296.59
2023-04-30T22:53:17.806Z,100297.75
2023-04-30T22:55:46.630Z,100291.78
2023-04-30T22:58:14.909Z,100297.19
2023-04-30T23:00:43.327Z,100291.72
2023-04-30T23:03:13.115Z,100287.78
2023-04-30T23:05:41.425Z,100292.53
2023-04-30T23:08:09.691Z,100286.56
2023-04-30T23:10:38.151Z,100285.75
2023-04-30T23:13:06.464Z,100290.22
2023-04-30T23:15:34.687Z,100294.97
2023-04-30T23:18:05.325Z,100295.75
2023-04-30T23:20:35.057Z,100294.66
2023-04-30T23:23:03.304Z,100298.25
2023-04-30T23:25:32.898Z,100294.03
2023-04-30T23:28:01.323Z,100292.91
2023-04-30T23:30:29.570Z,100289.09
2023-04-30T23:32:58.210Z,100294.44
2023-04-30T23:35:27.622Z,100292.81
2023-04-30T23:37:57.642Z,100293.78
2023-04-30T23:40:26.061Z,100294.56
2023-04-30T23:42:55.864Z,100301.25
2023-04-30T23:45:24.365Z,100291.31
2023-04-30T23:47:52.892Z,100294.94
2023-04-30T23:50:23.971Z,100294.31
2023-04-30T23:52:52.492Z,100295.72
2023-04-30T23:55:22.519Z,100303.13
2023-04-30T23:57:50.853Z,100296.50
